Hlavní strana
METAR-TAF:

METAR-TAF

Letiště :

Ghardája, Alžírsko

zeměpisná šířka: 32-23N, zeměpisná délka: 003-49E, výška: 450 m

Aktuální stav počasí

Zpráva byla vytvořena před 34 minutami, v 05:00 UTC
Bezvětří
Teplota 7°C
Vlhkost vzduchu 49%
Tlak 1023 hPa
Viditelnost 10 km a více
Žádná oblačnost pod 1500 m, nevyskytují se cumulonimby.

METAR: DAUG 250500Z 00000KT CAVOK 07/M03 Q1023

Čas: 06:34 (05:34 UTC)

Předpověď počasí

Zpráva byla vytvořena před 6 hodinami a 34 minutami, v 23:00 UTC
Předpověď platná od 25 v 00 UTC do 25 v 24 UTC
vítr z různých směrů 2 kt
Viditelnost 10 km a více
Žádná oblačnost pod 1500 m, nevyskytují se cumulonimby.
Změna
od 25 v 10 UTC do 25 v 12 UTC
Jihozápadní vítr 10 kt
Změna
od 25 v 16 UTC do 25 v 18 UTC
Jihovýchodní vítr 10 kt
Změna
od 25 v 19 UTC do 25 v 21 UTC
vítr z různých směrů 2 kt

TAF: DAUG 242300Z 2500/2524 VRB02KT CAVOK BECMG 2510/2512 22010KT BECMG 2516/2518 14010KT BECMG 2519/2521 VRB02KT

Stav a předpovědi počasí z více než 4 000 letišť (zprávy METAR a TAF).

Červené a žluté tečky na mapě představují dostupné meteorologické stanice.

Když kurzor umístíte na tečku, zobrazí se název stanice.

Pak kliknutím zobrazíte stav a předpověď počasí.

Chcete-li změnit mapu, kliknutím na zelené tlačítko se znaménkem +mapu přiblížíte, kliknutím na zelené tlačítko se znaménkem – mapu oddálíte a kliknutím na zelené šipky přejdete na sousední mapy.


METAR-TAF: